Time;durP1;ratioP1;P1;durP2;ratioP2;P2;SDS_P1;SDS_P2;PMS_P1;PMS_P2;Temp;Humidity;BMP_temperature;BMP_pressure;BME280_temperature;BME280_humidity;BME280_pressure;Samples;Min_cycle;Max_cycle;Signal;HPM_P1;HPM_P2
2022/01/07 00:02:00;;;;;;;5.13;4.67;;;6.80;96.00;;;;;;5071450;28;20175;-67
2022/01/07 00:04:26;;;;;;;6.80;4.90;;;6.60;96.20;;;;;;5070862;28;20492;-67
2022/01/07 00:06:52;;;;;;;6.57;4.27;;;6.60;96.10;;;;;;5061597;28;20817;-67
2022/01/07 00:09:18;;;;;;;11.10;4.37;;;6.50;96.70;;;;;;5071041;28;20475;-68
2022/01/07 00:11:45;;;;;;;9.03;4.70;;;6.60;96.50;;;;;;5071272;28;20428;-67
2022/01/07 00:14:11;;;;;;;6.93;4.60;;;6.60;96.60;;;;;;5071393;28;20395;-67
2022/01/07 00:16:37;;;;;;;6.63;4.20;;;6.50;96.50;;;;;;5071165;28;20983;-67
2022/01/07 00:19:02;;;;;;;8.53;4.87;;;6.40;96.50;;;;;;5071536;28;20384;-67
2022/01/07 00:21:28;;;;;;;5.87;4.40;;;6.50;96.60;;;;;;5070747;28;20420;-67
2022/01/07 00:23:54;;;;;;;6.77;4.77;;;6.50;96.80;;;;;;5053150;28;20407;-67
2022/01/07 00:26:19;;;;;;;6.23;5.07;;;6.40;96.60;;;;;;5071694;28;20174;-68
2022/01/07 00:28:45;;;;;;;9.03;5.13;;;6.50;96.80;;;;;;5075048;28;20689;-69
2022/01/07 00:31:11;;;;;;;5.20;4.70;;;6.50;96.50;;;;;;5075322;28;20264;-67
2022/01/07 00:33:37;;;;;;;6.17;4.77;;;6.50;96.30;;;;;;5073676;28;20171;-67
2022/01/07 00:36:03;;;;;;;5.80;4.70;;;6.50;96.30;;;;;;5074947;28;20273;-67
2022/01/07 00:38:30;;;;;;;5.43;4.77;;;6.30;96.40;;;;;;5073111;28;20182;-67
2022/01/07 00:40:56;;;;;;;6.90;4.90;;;6.40;96.50;;;;;;5074168;28;20908;-68
2022/01/07 00:43:22;;;;;;;5.10;4.60;;;6.00;96.20;;;;;;5074412;28;20816;-68
2022/01/07 00:45:48;;;;;;;7.10;4.53;;;6.40;96.30;;;;;;5074219;28;20469;-67
2022/01/07 00:48:14;;;;;;;6.80;4.53;;;6.50;96.30;;;;;;5073647;28;20543;-67
2022/01/07 00:50:40;;;;;;;6.53;4.70;;;6.50;96.40;;;;;;5072191;28;20192;-67
2022/01/07 00:53:06;;;;;;;5.90;4.90;;;6.60;96.40;;;;;;5074913;28;20380;-67
2022/01/07 00:55:32;;;;;;;5.10;4.27;;;6.50;95.80;;;;;;5074027;28;20509;-68
2022/01/07 00:57:58;;;;;;;3.87;3.50;;;6.50;95.90;;;;;;5074663;28;20174;-67
2022/01/07 01:00:25;;;;;;;5.60;4.03;;;6.40;95.90;;;;;;5073738;28;20412;-68
2022/01/07 01:02:52;;;;;;;309.30;161.30;;;6.50;95.90;;;;;;5074828;28;20226;-65
2022/01/07 01:05:18;;;;;;;18.17;10.20;;;6.50;95.90;;;;;;5073734;28;20920;-74
2022/01/07 01:07:44;;;;;;;6.30;4.60;;;6.50;96.10;;;;;;5074197;28;20948;-67
2022/01/07 01:10:11;;;;;;;6.90;4.60;;;6.50;96.10;;;;;;5074692;28;20465;-66
2022/01/07 01:12:39;;;;;;;5.43;4.50;;;6.60;96.00;;;;;;5074098;28;20453;-67
2022/01/07 01:15:08;;;;;;;4.63;4.20;;;6.50;95.70;;;;;;5073889;28;20884;-66
2022/01/07 01:17:34;;;;;;;7.00;4.20;;;6.40;96.10;;;;;;5073467;28;20425;-67
2022/01/07 01:20:01;;;;;;;7.70;4.83;;;6.50;96.10;;;;;;5074206;28;20190;-66
2022/01/07 01:22:27;;;;;;;9.50;4.40;;;6.50;95.90;;;;;;5073597;28;20402;-67
2022/01/07 01:24:52;;;;;;;6.50;4.93;;;6.30;96.40;;;;;;5074332;28;20409;-67
2022/01/07 01:27:18;;;;;;;5.60;5.10;;;6.30;96.50;;;;;;5074116;28;20271;-73
2022/01/07 01:29:44;;;;;;;6.03;4.80;;;6.30;96.80;;;;;;5073854;28;20226;-66
2022/01/07 01:32:10;;;;;;;6.70;4.73;;;6.40;96.80;;;;;;5072386;28;20177;-66
2022/01/07 01:34:35;;;;;;;7.60;4.50;;;6.30;96.70;;;;;;5071901;28;20178;-66
2022/01/07 01:37:01;;;;;;;10.70;5.77;;;6.30;96.60;;;;;;5071817;28;20265;-67
2022/01/07 01:39:27;;;;;;;10.70;5.20;;;6.40;96.90;;;;;;5054977;28;20269;-67
2022/01/07 01:41:53;;;;;;;5.80;4.63;;;6.40;96.70;;;;;;5073425;28;20217;-67
2022/01/07 01:44:18;;;;;;;8.47;5.83;;;6.40;96.70;;;;;;5073993;28;20601;-66
2022/01/07 01:46:44;;;;;;;6.90;4.73;;;6.40;96.60;;;;;;5073382;28;20230;-66
2022/01/07 01:49:10;;;;;;;7.77;5.03;;;6.30;96.90;;;;;;5072452;28;20468;-67
2022/01/07 01:51:36;;;;;;;589.63;356.27;;;5.80;96.70;;;;;;5073241;28;20182;-66
2022/01/07 01:54:04;;;;;;;21.00;14.43;;;6.30;97.10;;;;;;5073809;28;20176;-66
2022/01/07 01:56:29;;;;;;;6.00;5.50;;;6.30;96.90;;;;;;5071145;28;20458;-67
2022/01/07 01:58:55;;;;;;;6.10;5.50;;;6.30;96.90;;;;;;5073620;28;20893;-67
2022/01/07 02:01:21;;;;;;;7.00;5.63;;;6.30;97.10;;;;;;5073040;28;20182;-73
2022/01/07 02:03:47;;;;;;;6.53;5.20;;;5.90;97.00;;;;;;5071855;28;20585;-66
2022/01/07 02:06:14;;;;;;;6.10;5.33;;;6.30;97.60;;;;;;5073416;28;20231;-67
2022/01/07 02:08:40;;;;;;;6.20;5.50;;;6.20;97.30;;;;;;5072742;28;20195;-67
2022/01/07 02:11:06;;;;;;;6.70;5.40;;;6.20;97.40;;;;;;5071927;28;20425;-67
2022/01/07 02:13:32;;;;;;;7.03;5.53;;;6.20;97.20;;;;;;5072656;28;20463;-67
2022/01/07 02:15:57;;;;;;;9.10;5.50;;;6.30;97.50;;;;;;5073354;28;20412;-67
2022/01/07 02:18:23;;;;;;;8.30;5.50;;;6.30;97.00;;;;;;5072204;28;20245;-74
2022/01/07 02:20:49;;;;;;;7.20;5.37;;;6.30;97.00;;;;;;5071848;28;20381;-66
2022/01/07 02:23:17;;;;;;;8.00;5.60;;;6.10;97.00;;;;;;5073258;28;20931;-67
2022/01/07 02:25:44;;;;;;;5.50;5.00;;;6.00;96.60;;;;;;5072292;28;20361;-67
2022/01/07 02:28:11;;;;;;;6.32;5.20;;;6.20;96.80;;;;;;5071661;28;20428;-68
2022/01/07 02:30:37;;;;;;;6.60;5.40;;;6.30;97.00;;;;;;5072091;28;20265;-67
2022/01/07 02:33:03;;;;;;;6.60;5.50;;;6.20;97.00;;;;;;5073183;28;20499;-67
2022/01/07 02:35:32;;;;;;;6.93;5.37;;;6.20;97.10;;;;;;5070696;28;20225;-67
2022/01/07 02:37:58;;;;;;;12.05;5.45;;;6.20;96.90;;;;;;5053209;28;20421;-67
2022/01/07 02:40:25;;;;;;;8.90;4.97;;;6.20;97.30;;;;;;5052430;28;20269;-74
2022/01/07 02:42:51;;;;;;;8.02;5.60;;;6.20;97.10;;;;;;5051601;28;20496;-67
2022/01/07 02:45:17;;;;;;;6.45;5.47;;;6.00;96.90;;;;;;5059308;28;20231;-67
2022/01/07 02:47:55;;;;;;;8.20;5.40;;;5.90;96.70;;;;;;5072110;28;20472;-67
2022/01/07 02:50:23;;;;;;;9.13;5.13;;;6.10;97.10;;;;;;5071897;28;20205;-67
2022/01/07 02:52:49;;;;;;;7.28;5.68;;;6.10;97.30;;;;;;5071886;28;20412;-67
2022/01/07 02:55:14;;;;;;;6.53;5.40;;;6.10;97.10;;;;;;5071357;28;20199;-67
2022/01/07 02:57:40;;;;;;;7.43;5.77;;;6.20;97.30;;;;;;5071362;28;20412;-67
2022/01/07 03:00:08;;;;;;;5.37;4.90;;;6.20;97.10;;;;;;5072233;28;20183;-67
2022/01/07 03:02:34;;;;;;;5.80;5.20;;;6.20;97.40;;;;;;5071684;28;20177;-67
2022/01/07 03:05:00;;;;;;;6.30;5.40;;;6.10;97.30;;;;;;5072412;28;20773;-67
2022/01/07 03:07:25;;;;;;;5.93;5.40;;;6.10;97.80;;;;;;5071759;28;20399;-74
2022/01/07 03:09:51;;;;;;;6.47;5.80;;;6.20;97.80;;;;;;5071901;28;20201;-67
2022/01/07 03:12:17;;;;;;;7.60;5.30;;;6.30;97.70;;;;;;5072235;28;20262;-67
2022/01/07 03:14:43;;;;;;;6.00;5.50;;;5.70;97.90;;;;;;5071155;28;20300;-67
2022/01/07 03:17:09;;;;;;;5.93;5.40;;;5.90;98.60;;;;;;5071201;28;20231;-67
2022/01/07 03:19:34;;;;;;;8.80;5.23;;;5.90;98.90;;;;;;5071318;28;20964;-67
2022/01/07 03:22:00;;;;;;;5.93;5.43;;;6.10;99.10;;;;;;5072397;28;20247;-67
2022/01/07 03:24:26;;;;;;;8.43;5.50;;;6.00;98.90;;;;;;5071804;28;20252;-74
2022/01/07 03:26:51;;;;;;;9.10;5.37;;;6.10;99.10;;;;;;5071812;28;20177;-67
2022/01/07 03:29:17;;;;;;;9.77;5.40;;;6.10;98.90;;;;;;5071122;28;20206;-67
2022/01/07 03:31:43;;;;;;;5.80;5.20;;;6.00;99.30;;;;;;5071447;28;20634;-67
2022/01/07 03:34:08;;;;;;;9.00;6.17;;;6.00;99.50;;;;;;5071999;28;20188;-67
2022/01/07 03:36:34;;;;;;;9.90;5.37;;;6.20;99.70;;;;;;5059739;28;20653;-67
2022/01/07 03:39:03;;;;;;;7.13;5.40;;;6.10;99.50;;;;;;5052187;28;20188;-67
2022/01/07 03:41:29;;;;;;;5.00;4.60;;;6.10;99.60;;;;;;5051414;28;20224;-74
2022/01/07 03:43:55;;;;;;;7.37;5.37;;;5.80;99.40;;;;;;5052186;28;20420;-68
2022/01/07 03:46:21;;;;;;;9.77;5.73;;;6.10;99.90;;;;;;5052178;28;20464;-67
2022/01/07 03:48:46;;;;;;;5.50;5.00;;;6.20;99.80;;;;;;5051164;28;20464;-67
2022/01/07 03:51:12;;;;;;;6.50;4.93;;;6.00;99.90;;;;;;5051998;28;20885;-67
2022/01/07 03:53:39;;;;;;;7.00;5.00;;;6.00;99.90;;;;;;5062152;28;20175;-68
2022/01/07 03:56:05;;;;;;;5.65;5.15;;;6.10;99.80;;;;;;5070849;28;20387;-67
2022/01/07 03:58:30;;;;;;;7.03;4.90;;;5.90;99.90;;;;;;5071331;28;20217;-74
2022/01/07 04:00:56;;;;;;;6.30;5.07;;;5.90;99.90;;;;;;5072978;28;20419;-67
2022/01/07 04:03:22;;;;;;;7.43;4.70;;;5.90;99.90;;;;;;5075758;28;20181;-67
2022/01/07 04:05:48;;;;;;;5.90;5.40;;;5.80;99.90;;;;;;5071334;28;20482;-67
2022/01/07 04:08:14;;;;;;;6.77;5.27;;;5.80;99.90;;;;;;5055833;28;20177;-67
2022/01/07 04:10:40;;;;;;;10.10;5.90;;;5.80;99.90;;;;;;5055038;28;20264;-67
2022/01/07 04:13:06;;;;;;;5.43;4.93;;;5.60;99.90;;;;;;5066035;28;20432;-67
2022/01/07 04:15:32;;;;;;;5.53;5.03;;;5.60;99.90;;;;;;5074746;28;20227;-75
2022/01/07 04:17:58;;;;;;;6.67;5.20;;;5.50;99.90;;;;;;5074774;28;20197;-67
2022/01/07 04:20:28;;;;;;;5.53;5.03;;;5.70;99.90;;;;;;5074364;28;20859;-67
2022/01/07 04:22:54;;;;;;;6.25;5.10;;;5.70;99.90;;;;;;5075078;28;20178;-67
2022/01/07 04:25:21;;;;;;;8.68;6.13;;;5.80;99.90;;;;;;5075358;28;20197;-67
2022/01/07 04:27:48;;;;;;;5.95;5.45;;;5.70;99.90;;;;;;5074723;28;20588;-67
2022/01/07 04:30:14;;;;;;;5.60;5.10;;;5.70;99.90;;;;;;5075648;28;20206;-67
2022/01/07 04:32:42;;;;;;;6.10;4.97;;;5.80;99.90;;;;;;5074357;28;20173;-67
2022/01/07 04:35:10;;;;;;;5.10;4.60;;;5.90;99.90;;;;;;5074101;28;20930;-68
2022/01/07 04:37:36;;;;;;;5.60;5.10;;;6.00;99.90;;;;;;5074432;28;20510;-68
2022/01/07 04:40:07;;;;;;;6.63;5.05;;;6.00;99.90;;;;;;5075328;28;20451;-67
2022/01/07 04:42:33;;;;;;;5.88;5.38;;;5.80;99.90;;;;;;5074431;28;20177;-74
2022/01/07 04:44:59;;;;;;;4.10;3.90;;;5.80;99.90;;;;;;5073671;28;20219;-67
2022/01/07 04:47:25;;;;;;;7.00;6.40;;;5.90;99.90;;;;;;5074048;28;20186;-67
2022/01/07 04:49:51;;;;;;;6.90;6.17;;;5.90;99.90;;;;;;5074201;28;20221;-67
2022/01/07 04:52:17;;;;;;;6.70;5.03;;;5.80;99.90;;;;;;5074797;28;20972;-67
2022/01/07 04:54:44;;;;;;;4.80;4.33;;;5.80;99.90;;;;;;5074247;28;20443;-67
2022/01/07 04:57:10;;;;;;;6.40;5.80;;;5.90;99.90;;;;;;5075010;28;20398;-67
2022/01/07 04:59:35;;;;;;;5.97;5.47;;;5.80;99.90;;;;;;5072719;28;20270;-67
2022/01/07 05:02:01;;;;;;;5.80;5.30;;;6.00;99.90;;;;;;5073746;28;20608;-67
2022/01/07 05:04:27;;;;;;;6.20;5.70;;;6.00;99.90;;;;;;5074609;28;20170;-67
2022/01/07 05:06:53;;;;;;;6.60;6.20;;;6.10;99.90;;;;;;5061435;28;20193;-67
2022/01/07 05:09:19;;;;;;;6.20;5.70;;;6.20;99.90;;;;;;5053550;28;20218;-67
2022/01/07 05:11:50;;;;;;;7.25;5.13;;;5.90;99.90;;;;;;5057856;28;20178;-67
2022/01/07 05:14:16;;;;;;;5.03;3.90;;;5.80;99.90;;;;;;5074732;28;20170;-67
2022/01/07 05:16:42;;;;;;;7.33;4.80;;;5.90;99.90;;;;;;5073168;28;21037;-67
2022/01/07 05:19:09;;;;;;;5.43;4.75;;;5.60;99.90;;;;;;5071654;28;20186;-67
2022/01/07 05:21:35;;;;;;;4.87;4.37;;;5.70;99.90;;;;;;5072766;28;20188;-74
2022/01/07 05:24:01;;;;;;;5.23;4.80;;;6.00;99.90;;;;;;5074343;28;20416;-67
2022/01/07 05:26:27;;;;;;;6.03;4.18;;;6.00;99.90;;;;;;5074284;28;20424;-67
2022/01/07 05:28:53;;;;;;;7.13;6.28;;;5.90;99.90;;;;;;5072312;28;20513;-68
2022/01/07 05:31:22;;;;;;;4.90;4.17;;;5.80;99.90;;;;;;5072417;28;20210;-67
2022/01/07 05:33:48;;;;;;;5.15;4.70;;;5.90;99.90;;;;;;5072693;28;20185;-67
2022/01/07 05:36:14;;;;;;;7.05;6.13;;;5.30;99.90;;;;;;5066772;28;20188;-67
2022/01/07 05:38:40;;;;;;;5.53;5.03;;;5.80;99.90;;;;;;5060851;28;20622;-68
2022/01/07 05:41:05;;;;;;;6.17;4.77;;;5.70;99.90;;;;;;5073940;28;20181;-67
2022/01/07 05:43:31;;;;;;;6.53;5.50;;;5.90;99.90;;;;;;5074314;28;20177;-67
2022/01/07 05:45:58;;;;;;;5.17;4.77;;;5.60;99.90;;;;;;5071195;28;20444;-67
2022/01/07 05:48:24;;;;;;;4.90;4.45;;;5.90;99.90;;;;;;5056043;28;20728;-67
2022/01/07 05:50:50;;;;;;;4.90;4.50;;;5.90;99.90;;;;;;5072773;28;20189;-67
2022/01/07 05:53:15;;;;;;;5.47;4.97;;;6.00;99.90;;;;;;5073959;28;20533;-67
2022/01/07 05:55:41;;;;;;;5.00;4.20;;;6.10;99.90;;;;;;5071870;28;20431;-67
2022/01/07 05:58:07;;;;;;;6.10;5.65;;;5.90;99.90;;;;;;5072969;28;20209;-67
2022/01/07 06:00:33;;;;;;;4.33;3.93;;;6.00;99.90;;;;;;5071996;28;20213;-67
2022/01/07 06:02:59;;;;;;;6.93;6.05;;;6.10;99.90;;;;;;5071478;28;20181;-67
2022/01/07 06:05:25;;;;;;;7.20;6.50;;;6.10;99.90;;;;;;5072599;28;20890;-69
2022/01/07 06:07:50;;;;;;;4.40;4.00;;;6.20;99.90;;;;;;5072733;28;20186;-69
2022/01/07 06:10:16;;;;;;;4.80;4.33;;;6.00;99.90;;;;;;5072358;28;20709;-69
2022/01/07 06:12:42;;;;;;;5.47;4.97;;;6.60;99.90;;;;;;5072412;28;20220;-69
2022/01/07 06:15:08;;;;;;;6.73;6.03;;;6.80;99.90;;;;;;5072690;28;20224;-69
2022/01/07 06:17:35;;;;;;;6.27;4.20;;;6.90;99.90;;;;;;5073544;28;20175;-69
2022/01/07 06:20:00;;;;;;;5.40;4.50;;;6.80;99.90;;;;;;5072649;28;20454;-69
2022/01/07 06:22:26;;;;;;;5.67;5.17;;;7.00;99.90;;;;;;5073413;28;20494;-69
2022/01/07 06:24:52;;;;;;;4.50;4.20;;;6.70;99.90;;;;;;5071557;28;20174;-69
2022/01/07 06:27:18;;;;;;;4.93;3.80;;;6.80;99.90;;;;;;5072048;28;20273;-69
2022/01/07 06:29:45;;;;;;;8.83;5.60;;;7.00;99.90;;;;;;5071863;28;20559;-74
2022/01/07 06:32:11;;;;;;;6.37;4.97;;;7.20;99.90;;;;;;5071116;28;20184;-70
2022/01/07 06:34:37;;;;;;;6.30;5.83;;;7.20;99.90;;;;;;5072477;28;20518;-77
2022/01/07 06:37:04;;;;;;;5.13;4.63;;;7.40;99.90;;;;;;5072205;28;20446;-69
2022/01/07 06:39:29;;;;;;;7.60;7.00;;;7.50;99.90;;;;;;5058424;28;20197;-67
2022/01/07 06:41:57;;;;;;;10.47;6.40;;;7.10;99.30;;;;;;5071248;28;20432;-67
2022/01/07 06:44:30;;;;;;;4.47;4.07;;;7.20;99.50;;;;;;5105130;27;20554;-70
2022/01/07 06:46:56;;;;;;;5.97;5.40;;;7.20;99.30;;;;;;5070209;28;20900;-68
2022/01/07 06:49:22;;;;;;;5.43;5.03;;;7.00;99.60;;;;;;5075016;28;20252;-69
2022/01/07 06:51:48;;;;;;;5.00;4.60;;;7.00;99.90;;;;;;5082934;28;20209;-69
2022/01/07 06:54:13;;;;;;;5.13;4.00;;;7.10;99.80;;;;;;5084045;28;20500;-67
2022/01/07 06:56:41;;;;;;;4.33;3.93;;;7.10;99.80;;;;;;5081897;28;20676;-74
2022/01/07 06:59:07;;;;;;;4.40;4.00;;;7.00;99.90;;;;;;5067831;28;20562;-67
2022/01/07 07:01:33;;;;;;;4.90;4.50;;;6.90;99.90;;;;;;5075686;28;20421;-67
2022/01/07 07:04:02;;;;;;;4.43;4.00;;;6.80;99.90;;;;;;5069202;28;20451;-70
2022/01/07 07:06:27;;;;;;;4.70;4.40;;;6.80;99.90;;;;;;5085323;28;20543;-67
2022/01/07 07:08:53;;;;;;;4.77;4.40;;;6.80;99.90;;;;;;5075464;28;20420;-67
2022/01/07 07:11:19;;;;;;;4.53;4.23;;;6.80;99.90;;;;;;5070170;28;20981;-67
2022/01/07 07:13:44;;;;;;;3.83;3.57;;;6.70;99.90;;;;;;5084838;28;20340;-67
2022/01/07 07:16:10;;;;;;;7.17;6.60;;;6.30;99.90;;;;;;5079258;28;20224;-67
2022/01/07 07:18:36;;;;;;;7.30;6.70;;;6.60;99.90;;;;;;5087706;28;20184;-67
2022/01/07 07:21:01;;;;;;;5.53;4.33;;;6.40;99.90;;;;;;5068254;28;20175;-67
2022/01/07 07:23:27;;;;;;;5.07;4.70;;;6.40;99.90;;;;;;5075110;28;20755;-68
2022/01/07 07:25:53;;;;;;;5.90;5.30;;;6.60;99.90;;;;;;5068009;28;20183;-68
2022/01/07 07:28:19;;;;;;;4.53;3.90;;;6.50;99.90;;;;;;5054272;28;20220;-68
2022/01/07 07:30:45;;;;;;;4.30;4.00;;;6.50;99.90;;;;;;5049851;28;20598;-68
2022/01/07 07:38:37;;;;;;;4.50;4.10;;;6.60;99.90;;;;;;5088037;28;20747;-68
2022/01/07 07:41:03;;;;;;;4.57;4.27;;;6.70;99.90;;;;;;5087719;28;20201;-68
2022/01/07 07:43:29;;;;;;;6.07;5.43;;;6.60;99.90;;;;;;5075999;28;20480;-68
2022/01/07 07:45:55;;;;;;;6.20;5.80;;;6.60;99.90;;;;;;5067365;28;20177;-68
2022/01/07 07:48:20;;;;;;;4.23;3.83;;;6.60;99.90;;;;;;5050763;28;20533;-68
2022/01/07 07:50:46;;;;;;;5.73;5.33;;;6.50;99.90;;;;;;5049734;28;20433;-68
2022/01/07 07:53:12;;;;;;;5.10;4.60;;;6.10;99.90;;;;;;5067927;28;20277;-68
2022/01/07 07:55:38;;;;;;;4.20;3.90;;;6.40;99.90;;;;;;5052875;28;20199;-68
2022/01/07 07:58:04;;;;;;;4.70;4.30;;;6.40;99.90;;;;;;5041535;28;20182;-68
2022/01/07 08:00:31;;;;;;;4.80;4.40;;;6.40;99.90;;;;;;5039522;28;20398;-68
2022/01/07 08:02:58;;;;;;;4.90;4.47;;;6.40;99.90;;;;;;5034396;28;20257;-68
2022/01/07 08:05:24;;;;;;;4.37;3.83;;;6.50;99.90;;;;;;5017325;28;20464;-69
2022/01/07 08:07:49;;;;;;;4.33;4.03;;;6.50;99.90;;;;;;5015872;28;20396;-68
2022/01/07 08:10:22;;;;;;;4.83;4.50;;;6.50;99.90;;;;;;5034799;28;20931;-68
2022/01/07 08:13:15;;;;;;;4.27;3.90;;;6.50;99.90;;;;;;5033820;28;20500;-68
2022/01/07 08:15:59;;;;;;;5.63;5.32;;;6.70;99.90;;;;;;5034427;28;20935;-68
2022/01/07 08:18:29;;;;;;;4.73;4.43;;;6.50;99.90;;;;;;5034433;28;20530;-68
2022/01/07 08:20:56;;;;;;;5.13;4.63;;;6.50;99.90;;;;;;5033781;28;20477;-68
2022/01/07 08:23:23;;;;;;;4.53;4.13;;;6.10;99.90;;;;;;5016959;28;20544;-68
2022/01/07 08:25:49;;;;;;;5.30;4.80;;;6.50;99.90;;;;;;5016165;28;20423;-68
2022/01/07 08:28:16;;;;;;;5.00;4.60;;;6.40;99.90;;;;;;5034553;28;20188;-68
2022/01/07 08:36:33;;;;;;;4.63;4.33;;;6.30;99.90;;;;;;5001936;28;20933;-68
2022/01/07 08:38:59;;;;;;;5.60;5.15;;;6.30;99.90;;;;;;5033749;28;20525;-68
2022/01/07 08:41:28;;;;;;;5.03;4.63;;;6.20;99.90;;;;;;5034502;28;20257;-68
2022/01/07 08:43:54;;;;;;;4.65;4.35;;;6.30;99.90;;;;;;5033911;28;20224;-68
2022/01/07 08:46:20;;;;;;;5.00;4.50;;;6.20;99.90;;;;;;5016557;28;20583;-68
2022/01/07 08:48:46;;;;;;;5.70;5.20;;;6.30;99.90;;;;;;5033757;28;20449;-73
2022/01/07 08:51:12;;;;;;;4.63;4.23;;;6.30;99.90;;;;;;5015846;28;20189;-69
2022/01/07 08:53:38;;;;;;;5.37;4.87;;;6.30;99.90;;;;;;5016560;28;20981;-68
2022/01/07 08:56:05;;;;;;;5.80;5.17;;;6.40;99.90;;;;;;5033128;28;20740;-67
2022/01/07 08:58:32;;;;;;;5.57;5.07;;;6.40;99.90;;;;;;5033666;28;20257;-68
2022/01/07 09:00:58;;;;;;;5.30;4.60;;;6.10;99.90;;;;;;5032731;28;20630;-68
2022/01/07 09:03:24;;;;;;;269.23;131.60;;;6.40;99.90;;;;;;5034462;28;20469;-67
2022/01/07 09:05:51;;;;;;;81.93;49.43;;;6.40;99.90;;;;;;5036529;28;20409;-68
2022/01/07 09:08:16;;;;;;;6.30;5.70;;;6.40;99.90;;;;;;5053529;28;20414;-67
2022/01/07 09:10:43;;;;;;;6.57;5.97;;;6.40;99.90;;;;;;5054055;28;20420;-71
2022/01/07 09:13:09;;;;;;;5.30;4.87;;;6.40;99.90;;;;;;5017344;28;20443;-68
2022/01/07 09:15:35;;;;;;;7.83;4.87;;;6.30;99.90;;;;;;5036011;28;20638;-68
2022/01/07 09:18:09;;;;;;;30.13;17.27;;;6.00;99.90;;;;;;5053188;28;20384;-67
2022/01/07 09:20:39;;;;;;;13.27;9.93;;;6.50;99.90;;;;;;5051553;28;20409;-69
2022/01/07 09:23:06;;;;;;;5.30;4.80;;;6.40;99.90;;;;;;5045282;28;20464;-71
2022/01/07 09:25:32;;;;;;;5.90;5.50;;;6.50;99.90;;;;;;5052855;28;20404;-68
2022/01/07 09:27:58;;;;;;;5.40;4.70;;;6.50;99.90;;;;;;5052129;28;20395;-68
2022/01/07 09:30:24;;;;;;;5.10;4.70;;;6.50;99.90;;;;;;5050385;28;20762;-67
2022/01/07 09:32:50;;;;;;;5.90;5.50;;;6.50;99.90;;;;;;5049486;28;20429;-74
2022/01/07 09:35:17;;;;;;;5.80;5.10;;;6.50;99.90;;;;;;5032481;28;20433;-69
2022/01/07 09:37:43;;;;;;;6.73;5.20;;;6.50;99.90;;;;;;5047777;28;20403;-69
2022/01/07 09:40:10;;;;;;;7.33;6.73;;;6.40;99.90;;;;;;5052225;28;20400;-69
2022/01/07 09:42:36;;;;;;;140.87;87.20;;;6.50;99.90;;;;;;5040624;28;20576;-69
2022/01/07 09:45:03;;;;;;;15.10;11.73;;;6.50;99.90;;;;;;5067101;28;20461;-69
2022/01/07 09:47:29;;;;;;;8.00;7.50;;;6.60;99.90;;;;;;5054789;28;20436;-68
2022/01/07 09:49:55;;;;;;;7.03;6.43;;;6.70;99.90;;;;;;5064399;28;20496;-68
2022/01/07 09:52:21;;;;;;;6.37;5.70;;;6.70;99.90;;;;;;5070323;28;20176;-68
2022/01/07 09:54:48;;;;;;;5.80;5.30;;;6.70;99.90;;;;;;5062798;28;20428;-68
2022/01/07 09:57:14;;;;;;;5.63;5.13;;;6.70;99.90;;;;;;5067413;28;20441;-68
2022/01/07 09:59:40;;;;;;;5.33;4.80;;;6.70;99.90;;;;;;5052839;28;20465;-68
2022/01/07 10:02:08;;;;;;;5.73;5.23;;;6.70;99.90;;;;;;5059710;28;20395;-68
2022/01/07 10:04:35;;;;;;;5.47;5.07;;;6.80;99.90;;;;;;5072563;28;20186;-69
2022/01/07 10:07:24;;;;;;;4.90;4.53;;;6.30;99.90;;;;;;5071942;28;20425;-68
2022/01/07 10:10:07;;;;;;;5.03;4.60;;;6.80;99.90;;;;;;5057977;28;20414;-75
2022/01/07 10:12:52;;;;;;;4.60;4.30;;;6.70;99.90;;;;;;5052288;28;20452;-68
2022/01/07 10:15:19;;;;;;;5.07;4.67;;;6.80;99.90;;;;;;5067752;28;20425;-68
2022/01/07 10:18:12;;;;;;;5.40;4.90;;;6.70;99.90;;;;;;5071843;28;20452;-68
2022/01/07 10:20:40;;;;;;;434.97;265.13;;;6.70;99.90;;;;;;5070840;28;20409;-66
2022/01/07 10:23:15;;;;;;;29.83;18.53;;;6.80;99.90;;;;;;5053216;28;20462;-67
2022/01/07 10:25:44;;;;;;;6.40;5.90;;;6.80;99.90;;;;;;5072168;28;20434;-67
2022/01/07 10:28:11;;;;;;;6.07;5.50;;;6.60;99.90;;;;;;5070223;28;20417;-68
2022/01/07 10:30:44;;;;;;;5.30;5.00;;;6.40;99.90;;;;;;5060133;28;20449;-70
2022/01/07 10:33:17;;;;;;;5.50;5.00;;;6.50;99.90;;;;;;5051571;28;20410;-68
2022/01/07 10:35:43;;;;;;;4.67;4.27;;;6.40;99.90;;;;;;5052463;28;20426;-71
2022/01/07 10:38:15;;;;;;;157.38;82.95;;;6.60;99.90;;;;;;5067814;28;20417;-68
2022/01/07 10:40:41;;;;;;;49.83;32.37;;;6.70;99.90;;;;;;5064406;28;20166;-68
2022/01/07 10:43:09;;;;;;;6.33;5.73;;;6.30;99.90;;;;;;5064950;28;20462;-68
2022/01/07 10:45:35;;;;;;;6.47;5.20;;;6.50;99.90;;;;;;5070455;28;20421;-68
2022/01/07 10:48:01;;;;;;;5.40;5.00;;;6.80;99.90;;;;;;5050977;28;20793;-68
2022/01/07 10:50:27;;;;;;;5.37;5.00;;;6.70;99.90;;;;;;5052589;28;20423;-68
2022/01/07 10:53:15;;;;;;;4.47;4.10;;;6.70;99.90;;;;;;5033957;28;20188;-74
2022/01/07 10:55:56;;;;;;;4.90;4.53;;;6.70;99.90;;;;;;5050686;28;20399;-67
2022/01/07 10:58:22;;;;;;;4.30;3.90;;;6.80;99.90;;;;;;5052425;28;20411;-68
2022/01/07 11:00:48;;;;;;;4.93;4.63;;;6.80;99.90;;;;;;5050411;28;20396;-67
2022/01/07 11:03:13;;;;;;;5.17;4.83;;;6.80;99.90;;;;;;5051250;28;20214;-68
2022/01/07 11:05:40;;;;;;;4.80;4.30;;;6.80;99.90;;;;;;5052916;28;20426;-68
2022/01/07 11:08:06;;;;;;;4.80;4.40;;;6.90;99.90;;;;;;5071144;28;20181;-69
2022/01/07 11:10:33;;;;;;;4.73;4.43;;;6.80;99.90;;;;;;5066097;28;20846;-71
2022/01/07 11:13:00;;;;;;;6.40;5.80;;;6.90;99.90;;;;;;5051884;28;20188;-69
2022/01/07 11:15:26;;;;;;;5.90;5.50;;;6.90;99.90;;;;;;5050556;28;20476;-67
2022/01/07 11:17:52;;;;;;;4.90;4.50;;;7.00;99.90;;;;;;5066964;28;20413;-67
2022/01/07 11:20:24;;;;;;;4.53;4.23;;;7.10;99.90;;;;;;5069721;28;20414;-73
2022/01/07 11:22:54;;;;;;;5.07;4.67;;;7.00;99.90;;;;;;5071370;28;20442;-68
2022/01/07 11:25:29;;;;;;;5.00;4.60;;;7.00;99.90;;;;;;5069175;28;20473;-67
2022/01/07 11:27:57;;;;;;;4.37;4.17;;;7.00;99.90;;;;;;5055367;28;20519;-74
2022/01/07 11:30:28;;;;;;;4.67;4.37;;;7.00;99.90;;;;;;5073247;28;20390;-68
2022/01/07 11:32:57;;;;;;;4.37;4.07;;;7.00;99.90;;;;;;5074745;28;20925;-72
2022/01/07 11:35:23;;;;;;;5.40;5.00;;;7.10;99.90;;;;;;5073400;28;20417;-68
2022/01/07 11:38:00;;;;;;;5.27;4.97;;;7.00;99.90;;;;;;5059959;28;20425;-68
2022/01/07 11:40:32;;;;;;;4.50;4.27;;;7.00;99.90;;;;;;5074004;28;20274;-67
2022/01/07 11:43:06;;;;;;;4.73;4.43;;;7.10;99.90;;;;;;5073404;28;20478;-80
2022/01/07 11:45:39;;;;;;;4.20;3.90;;;7.10;99.90;;;;;;5074340;28;20425;-68
2022/01/07 11:48:26;;;;;;;4.70;4.30;;;7.20;99.90;;;;;;5073661;28;20509;-68
2022/01/07 11:50:55;;;;;;;5.50;5.10;;;7.20;99.90;;;;;;5069700;28;20548;-67
2022/01/07 11:53:41;;;;;;;64.27;40.83;;;7.30;99.90;;;;;;5074615;28;20501;-67
2022/01/07 11:56:09;;;;;;;32.57;21.30;;;7.20;99.90;;;;;;5063519;28;20486;-67
2022/01/07 11:58:47;;;;;;;5.80;5.40;;;7.30;99.90;;;;;;5075094;28;20433;-67
2022/01/07 12:01:30;;;;;;;5.07;4.67;;;7.30;99.90;;;;;;5071166;28;20923;-68
2022/01/07 12:04:02;;;;;;;4.97;4.50;;;7.30;99.90;;;;;;5057413;28;20458;-71
2022/01/07 12:06:29;;;;;;;5.77;5.27;;;7.40;99.90;;;;;;5063963;28;20952;-68
2022/01/07 12:09:09;;;;;;;4.30;3.90;;;7.40;99.90;;;;;;5075231;28;20800;-67
2022/01/07 12:11:47;;;;;;;4.40;4.10;;;7.30;99.90;;;;;;5055892;28;20420;-69
2022/01/07 12:14:19;;;;;;;4.00;3.70;;;7.20;99.90;;;;;;5053687;28;20480;-68
2022/01/07 12:16:49;;;;;;;4.67;4.37;;;7.30;99.90;;;;;;5053251;28;20910;-68
2022/01/07 12:19:21;;;;;;;4.47;4.20;;;7.20;99.90;;;;;;5053935;28;20395;-68
2022/01/07 12:21:53;;;;;;;4.80;4.00;;;7.10;99.90;;;;;;5053269;28;20434;-68
2022/01/07 12:24:25;;;;;;;4.67;4.13;;;7.10;99.90;;;;;;5058138;28;20485;-68
2022/01/07 12:27:20;;;;;;;4.90;4.50;;;7.10;99.90;;;;;;5066663;28;20634;-68
2022/01/07 12:29:48;;;;;;;4.50;4.20;;;7.20;99.90;;;;;;5063329;28;20882;-69
2022/01/07 12:32:18;;;;;;;4.80;4.40;;;7.30;99.90;;;;;;5064240;28;20404;-67
2022/01/07 12:34:50;;;;;;;5.40;5.00;;;7.30;99.90;;;;;;5064173;28;20476;-68
2022/01/07 12:37:22;;;;;;;4.63;4.33;;;7.30;99.90;;;;;;5043987;28;20414;-67
2022/01/07 12:39:51;;;;;;;6.30;5.80;;;7.00;99.90;;;;;;5062928;28;20439;-67
2022/01/07 12:42:17;;;;;;;4.80;4.43;;;7.40;99.90;;;;;;5058664;28;20514;-67
2022/01/07 12:44:57;;;;;;;4.90;4.50;;;7.50;99.90;;;;;;5042852;28;20488;-68
2022/01/07 12:47:32;;;;;;;7.60;4.73;;;7.30;99.90;;;;;;5041192;28;20450;-70
2022/01/07 12:50:04;;;;;;;5.20;4.83;;;7.50;99.90;;;;;;5023762;28;20416;-77
2022/01/07 12:52:34;;;;;;;4.43;4.13;;;7.50;99.90;;;;;;5042398;28;20421;-67
2022/01/07 12:55:16;;;;;;;4.83;4.53;;;7.60;99.90;;;;;;5040828;28;20419;-78
2022/01/07 12:57:46;;;;;;;5.13;4.77;;;7.40;99.90;;;;;;5042359;28;20424;-68
2022/01/07 13:00:27;;;;;;;4.70;4.30;;;7.50;99.90;;;;;;5047027;28;20926;-68
2022/01/07 13:02:58;;;;;;;6.33;4.93;;;7.50;99.90;;;;;;5044487;28;20593;-70
2022/01/07 13:05:40;;;;;;;5.70;5.20;;;7.60;99.90;;;;;;5009598;28;20416;-69
2022/01/07 13:08:14;;;;;;;5.27;4.87;;;7.50;99.90;;;;;;5020300;28;20879;-68
2022/01/07 13:10:42;;;;;;;5.33;4.93;;;7.40;99.90;;;;;;5042066;28;20465;-68